Time;durP1;ratioP1;P1;durP2;ratioP2;P2;SDS_P1;SDS_P2;PMS_P1;PMS_P2;Temp;Humidity;BMP_temperature;BMP_pressure;BME280_temperature;BME280_humidity;BME280_pressure;Samples;Min_cycle;Max_cycle;Signal;HPM_P1;HPM_P2
2023/06/26 00:01:06;;;;;;;;;;;29.80;55.10;;;;;;4879680;29;19912;-92
2023/06/26 00:03:35;;;;;;;;;;;29.80;55.00;;;;;;4881984;29;19912;-89
2023/06/26 00:06:01;;;;;;;;;;;29.80;55.00;;;;;;4879572;29;19994;-90
2023/06/26 00:08:27;;;;;;;;;;;29.80;55.00;;;;;;4880587;29;20364;-90
2023/06/26 00:10:53;;;;;;;;;;;29.80;55.00;;;;;;4879701;29;19943;-90
2023/06/26 00:13:19;;;;;;;;;;;29.70;54.90;;;;;;4871863;29;19912;-89
2023/06/26 00:15:44;;;;;;;;;;;29.70;54.90;;;;;;4881867;29;19941;-89
2023/06/26 00:18:10;;;;;;;;;;;29.70;54.90;;;;;;4888053;29;19970;-89
2023/06/26 00:20:36;;;;;;;;;;;29.70;54.90;;;;;;4890330;29;19976;-89
2023/06/26 00:23:03;;;;;;;;;;;29.70;54.80;;;;;;4878329;29;19983;-90
2023/06/26 00:25:55;;;;;;;;;;;29.70;54.80;;;;;;4880990;29;19919;-90
2023/06/26 00:28:33;;;;;;;;;;;29.70;54.80;;;;;;4889409;29;19912;-91
2023/06/26 00:31:08;;;;;;;;;;;29.70;54.80;;;;;;4878190;29;19912;-90
2023/06/26 00:33:33;;;;;;;;;;;29.70;54.80;;;;;;4887654;29;19920;-89
2023/06/26 00:36:02;;;;;;;;;;;29.70;54.80;;;;;;4878221;29;19967;-90
2023/06/26 00:38:43;;;;;;;;;;;29.70;54.70;;;;;;4888149;29;19955;-90
2023/06/26 00:41:12;;;;;;;;;;;29.60;54.70;;;;;;4869427;29;19923;-89
2023/06/26 00:43:38;;;;;;;;;;;29.60;54.70;;;;;;4883069;29;19916;-90
2023/06/26 00:46:04;;;;;;;;;;;29.60;54.70;;;;;;4892524;29;19911;-91
2023/06/26 00:48:36;;;;;;;;;;;29.60;54.70;;;;;;4891484;29;20226;-89
2023/06/26 00:51:07;;;;;;;;;;;29.60;54.60;;;;;;4875363;29;19923;-90
2023/06/26 00:53:35;;;;;;;;;;;29.60;54.60;;;;;;4893891;29;19975;-89
2023/06/26 00:56:17;;;;;;;;;;;29.60;54.60;;;;;;4885271;29;19920;-89
2023/06/26 00:58:42;;;;;;;;;;;29.60;54.60;;;;;;4876605;29;19911;-89
2023/06/26 01:01:08;;;;;;;;;;;29.50;54.60;;;;;;4882369;29;19918;-89
2023/06/26 01:03:34;;;;;;;;;;;29.50;54.60;;;;;;4882738;29;19915;-89
2023/06/26 01:06:03;;;;;;;;;;;29.50;54.60;;;;;;4891852;29;19918;-90
2023/06/26 01:08:28;;;;;;;;;;;29.50;54.60;;;;;;4890575;29;19915;-89
2023/06/26 01:11:00;;;;;;;;;;;29.50;54.60;;;;;;4883158;29;19911;-89
2023/06/26 01:13:28;;;;;;;;;;;29.50;54.60;;;;;;4884604;29;19920;-89
2023/06/26 01:15:58;;;;;;;;;;;29.50;54.60;;;;;;4884578;29;19923;-90
2023/06/26 01:18:24;;;;;;;;;;;29.50;54.60;;;;;;4890554;29;20059;-91
2023/06/26 01:20:50;;;;;;;;;;;29.50;54.60;;;;;;4884661;29;19976;-88
2023/06/26 01:23:20;;;;;;;;;;;29.50;54.60;;;;;;4883844;29;20410;-88
2023/06/26 01:26:11;;;;;;;;;;;29.40;54.50;;;;;;4877090;29;20130;-88
2023/06/26 01:28:59;;;;;;;;;;;29.40;54.50;;;;;;4889409;29;19920;-88
2023/06/26 01:31:27;;;;;;;;;;;29.40;54.50;;;;;;4887725;29;19969;-89
2023/06/26 01:33:53;;;;;;;;;;;29.40;54.50;;;;;;4877326;29;19920;-88
2023/06/26 01:36:21;;;;;;;;;;;29.40;54.50;;;;;;4891555;29;19983;-88
2023/06/26 01:38:47;;;;;;;;;;;29.40;54.50;;;;;;4883698;29;20011;-87
2023/06/26 01:41:13;;;;;;;;;;;29.40;54.50;;;;;;4892558;29;20176;-88
2023/06/26 01:43:39;;;;;;;;;;;29.40;54.50;;;;;;4889508;29;20000;-88
2023/06/26 01:46:05;;;;;;;;;;;29.40;54.50;;;;;;4883592;29;20265;-88
2023/06/26 01:48:42;;;;;;;;;;;29.30;54.50;;;;;;4883747;29;19955;-88
2023/06/26 01:51:08;;;;;;;;;;;29.30;54.50;;;;;;4882879;29;19911;-88
2023/06/26 01:56:40;;;;;;;;;;;29.30;54.50;;;;;;4831369;29;20063;-89
2023/06/26 01:59:08;;;;;;;;;;;29.30;54.50;;;;;;4878856;29;20018;-88
2023/06/26 02:01:44;;;;;;;;;;;29.30;54.50;;;;;;4873642;29;19912;-88
2023/06/26 02:04:09;;;;;;;;;;;29.30;54.50;;;;;;4873022;29;19922;-89
2023/06/26 02:06:35;;;;;;;;;;;29.30;54.50;;;;;;4882187;29;20063;-89
2023/06/26 02:09:07;;;;;;;;;;;29.20;54.40;;;;;;4881346;29;19912;-88
2023/06/26 02:11:37;;;;;;;;;;;29.20;54.40;;;;;;4873565;29;19916;-88
2023/06/26 02:14:05;;;;;;;;;;;29.30;54.50;;;;;;4885890;29;19911;-89
2023/06/26 02:16:33;;;;;;;;;;;29.20;54.50;;;;;;4882377;29;19916;-88
2023/06/26 02:18:59;;;;;;;;;;;29.20;54.40;;;;;;4880712;29;19920;-88
2023/06/26 02:21:25;;;;;;;;;;;29.20;54.50;;;;;;4883182;29;19978;-89
2023/06/26 02:23:50;;;;;;;;;;;29.20;54.40;;;;;;4889212;29;19947;-88
2023/06/26 02:26:16;;;;;;;;;;;29.20;54.40;;;;;;4891543;29;19986;-88
2023/06/26 02:28:41;;;;;;;;;;;29.20;54.40;;;;;;4889011;29;19912;-90
2023/06/26 02:31:07;;;;;;;;;;;29.20;54.40;;;;;;4882208;29;19934;-89
2023/06/26 02:33:42;;;;;;;;;;;29.10;54.40;;;;;;4889007;29;20260;-88
2023/06/26 02:36:10;;;;;;;;;;;29.10;54.40;;;;;;4889986;29;19932;-88
2023/06/26 02:38:36;;;;;;;;;;;29.10;54.40;;;;;;4881418;29;19912;-88
2023/06/26 02:41:04;;;;;;;;;;;29.10;54.40;;;;;;4891523;29;20248;-88
2023/06/26 02:43:30;;;;;;;;;;;29.10;54.40;;;;;;4884918;29;19947;-88
2023/06/26 02:45:55;;;;;;;;;;;29.10;54.40;;;;;;4881024;29;19950;-88
2023/06/26 02:48:21;;;;;;;;;;;29.10;54.40;;;;;;4875003;29;20463;-88
2023/06/26 02:50:47;;;;;;;;;;;29.10;54.40;;;;;;4890131;29;19950;-88
2023/06/26 02:53:15;;;;;;;;;;;29.10;54.40;;;;;;4888099;29;19934;-88
2023/06/26 02:55:41;;;;;;;;;;;29.00;54.40;;;;;;4880732;29;19920;-88
2023/06/26 02:58:06;;;;;;;;;;;29.00;54.40;;;;;;4880864;29;19989;-89
2023/06/26 03:00:32;;;;;;;;;;;29.00;54.40;;;;;;4877844;29;19923;-88
2023/06/26 03:02:58;;;;;;;;;;;29.00;54.40;;;;;;4874415;29;20097;-88
2023/06/26 03:05:23;;;;;;;;;;;29.00;54.40;;;;;;4881493;29;19979;-88
2023/06/26 03:07:52;;;;;;;;;;;29.00;54.40;;;;;;4878805;29;19972;-88
2023/06/26 03:10:18;;;;;;;;;;;29.00;54.40;;;;;;4872229;29;19922;-88
2023/06/26 03:12:46;;;;;;;;;;;29.00;54.70;;;;;;4879833;29;19912;-88
2023/06/26 03:15:34;;;;;;;;;;;29.00;54.40;;;;;;4880511;29;19926;-89
2023/06/26 03:17:59;;;;;;;;;;;28.90;54.30;;;;;;4870876;29;19981;-89
2023/06/26 03:20:25;;;;;;;;;;;28.90;54.30;;;;;;4882641;29;19955;-89
2023/06/26 03:22:50;;;;;;;;;;;28.90;54.30;;;;;;4894389;29;19919;-89
2023/06/26 03:25:16;;;;;;;;;;;28.90;54.40;;;;;;4880727;29;20120;-89
2023/06/26 03:27:41;;;;;;;;;;;28.90;54.30;;;;;;4881564;29;20011;-89
2023/06/26 03:30:07;;;;;;;;;;;28.90;54.40;;;;;;4887402;29;19994;-89
2023/06/26 03:32:32;;;;;;;;;;;28.90;54.40;;;;;;4888950;29;19923;-88
2023/06/26 03:35:03;;;;;;;;;;;28.90;54.40;;;;;;4886691;29;20014;-89
2023/06/26 03:37:28;;;;;;;;;;;28.90;54.40;;;;;;4886177;29;20215;-89
2023/06/26 03:39:54;;;;;;;;;;;28.90;54.40;;;;;;4878970;29;19912;-89
2023/06/26 03:42:22;;;;;;;;;;;28.80;54.30;;;;;;4878780;29;19916;-89
2023/06/26 03:44:48;;;;;;;;;;;28.90;54.30;;;;;;4878174;29;19928;-89
2023/06/26 03:47:13;;;;;;;;;;;28.80;54.30;;;;;;4864790;29;20314;-89
2023/06/26 03:49:41;;;;;;;;;;;28.80;54.30;;;;;;4879444;29;20277;-89
2023/06/26 03:52:07;;;;;;;;;;;28.80;54.30;;;;;;4869859;29;19915;-89
2023/06/26 03:54:35;;;;;;;;;;;28.80;54.30;;;;;;4888977;29;19912;-90
2023/06/26 03:57:04;;;;;;;;;;;28.80;54.30;;;;;;4876187;29;19919;-89
2023/06/26 03:59:33;;;;;;;;;;;28.80;54.40;;;;;;4878697;29;20177;-89
2023/06/26 04:02:03;;;;;;;;;;;28.80;54.30;;;;;;4877669;29;20262;-89
2023/06/26 04:04:34;;;;;;;;;;;28.80;54.20;;;;;;4881520;29;19911;-89
2023/06/26 04:07:03;;;;;;;;;;;28.80;54.20;;;;;;4880039;29;19912;-89
2023/06/26 04:09:28;;;;;;;;;;;28.80;54.30;;;;;;4886837;29;19919;-89
2023/06/26 04:12:15;;;;;;;;;;;28.80;54.20;;;;;;4890376;29;19912;-89
2023/06/26 04:14:44;;;;;;;;;;;28.80;54.20;;;;;;4889113;29;19915;-89
2023/06/26 04:17:12;;;;;;;;;;;28.80;54.20;;;;;;4881141;29;19924;-89
2023/06/26 04:19:41;;;;;;;;;;;28.80;54.20;;;;;;4887520;29;20010;-89
2023/06/26 04:22:15;;;;;;;;;;;28.80;54.10;;;;;;4893839;29;20132;-88
2023/06/26 04:24:47;;;;;;;;;;;28.80;54.10;;;;;;4879866;29;20268;-88
2023/06/26 04:27:13;;;;;;;;;;;28.80;54.10;;;;;;4884328;29;20250;-88
2023/06/26 04:29:51;;;;;;;;;;;28.90;54.10;;;;;;4877309;29;19979;-88
2023/06/26 04:32:20;;;;;;;;;;;28.90;54.10;;;;;;4884186;29;19984;-89
2023/06/26 04:34:48;;;;;;;;;;;28.90;54.00;;;;;;4885731;29;19969;-88
2023/06/26 04:37:16;;;;;;;;;;;28.90;54.00;;;;;;4890750;29;20006;-88
2023/06/26 04:39:45;;;;;;;;;;;28.90;54.00;;;;;;4884723;29;19911;-88
2023/06/26 04:42:14;;;;;;;;;;;28.90;54.00;;;;;;4885638;29;20121;-88
2023/06/26 04:44:48;;;;;;;;;;;28.90;53.90;;;;;;4892191;29;19920;-89
2023/06/26 04:47:17;;;;;;;;;;;28.90;53.90;;;;;;4882618;29;20061;-88
2023/06/26 04:49:51;;;;;;;;;;;28.90;53.90;;;;;;4890802;29;19939;-89
2023/06/26 04:52:20;;;;;;;;;;;28.90;53.80;;;;;;4883052;29;19939;-89
2023/06/26 04:54:52;;;;;;;;;;;28.90;53.80;;;;;;4889357;29;19920;-89
2023/06/26 04:57:18;;;;;;;;;;;29.00;53.80;;;;;;4882056;29;19912;-89
2023/06/26 04:59:44;;;;;;;;;;;29.00;53.80;;;;;;4876973;29;19919;-88
2023/06/26 05:02:14;;;;;;;;;;;29.00;53.80;;;;;;4883244;29;20018;-88
2023/06/26 05:04:43;;;;;;;;;;;29.00;53.70;;;;;;4880916;29;19916;-88
2023/06/26 05:07:09;;;;;;;;;;;29.00;53.70;;;;;;4880279;29;19954;-88
2023/06/26 05:09:34;;;;;;;;;;;29.00;53.70;;;;;;4882633;29;19954;-89
2023/06/26 05:12:01;;;;;;;;;;;29.00;53.70;;;;;;4881416;29;19919;-88
2023/06/26 05:14:27;;;;;;;;;;;29.00;53.60;;;;;;4882198;29;20172;-89
2023/06/26 05:16:52;;;;;;;;;;;29.10;53.70;;;;;;4889477;29;19912;-88
2023/06/26 05:19:17;;;;;;;;;;;29.00;53.60;;;;;;4879228;29;19963;-88
2023/06/26 05:21:43;;;;;;;;;;;29.10;53.60;;;;;;4878270;29;19915;-88
2023/06/26 05:24:15;;;;;;;;;;;29.10;53.50;;;;;;4876924;29;20002;-89
2023/06/26 05:26:41;;;;;;;;;;;29.10;53.50;;;;;;4888473;29;19918;-88
2023/06/26 05:29:07;;;;;;;;;;;29.10;53.50;;;;;;4885990;29;19916;-89
2023/06/26 05:31:33;;;;;;;;;;;29.10;53.50;;;;;;4877704;29;20083;-89
2023/06/26 05:34:00;;;;;;;;;;;29.10;53.50;;;;;;4887272;29;19936;-89
2023/06/26 05:36:29;;;;;;;;;;;29.10;53.50;;;;;;4880302;29;19919;-89
2023/06/26 05:38:57;;;;;;;;;;;29.10;53.50;;;;;;4874473;29;20131;-88
2023/06/26 05:41:23;;;;;;;;;;;29.10;53.50;;;;;;4869620;29;20283;-88
2023/06/26 05:43:49;;;;;;;;;;;29.10;53.50;;;;;;4875500;29;19971;-88
2023/06/26 05:46:14;;;;;;;;;;;29.10;53.50;;;;;;4870696;29;19915;-88
2023/06/26 05:48:39;;;;;;;;;;;29.10;53.50;;;;;;4884617;29;19912;-88
2023/06/26 05:51:05;;;;;;;;;;;29.20;53.50;;;;;;4873736;29;19995;-89
2023/06/26 05:53:34;;;;;;;;;;;29.20;53.50;;;;;;4875770;29;19911;-88
2023/06/26 05:56:00;;;;;;;;;;;29.20;53.40;;;;;;4875840;29;19920;-89
2023/06/26 05:58:29;;;;;;;;;;;29.30;53.40;;;;;;4874254;29;19912;-88
2023/06/26 06:00:55;;;;;;;;;;;29.30;53.40;;;;;;4866200;29;19916;-89
2023/06/26 06:03:20;;;;;;;;;;;29.40;53.40;;;;;;4873626;29;20086;-88
2023/06/26 06:05:46;;;;;;;;;;;29.50;53.30;;;;;;4878944;29;20012;-88
2023/06/26 06:08:21;;;;;;;;;;;29.50;53.30;;;;;;4877921;29;19911;-90
2023/06/26 06:10:50;;;;;;;;;;;29.50;53.30;;;;;;4877534;29;19912;-88
2023/06/26 06:13:18;;;;;;;;;;;29.50;53.20;;;;;;4878480;29;19911;-87
2023/06/26 06:15:47;;;;;;;;;;;29.50;53.20;;;;;;4875924;29;19916;-89
2023/06/26 06:18:12;;;;;;;;;;;29.50;53.20;;;;;;4867738;29;20288;-88
2023/06/26 06:20:38;;;;;;;;;;;29.50;53.20;;;;;;4886163;29;19971;-89
2023/06/26 06:23:03;;;;;;;;;;;29.60;53.20;;;;;;4879970;29;20261;-88
2023/06/26 06:25:55;;;;;;;;;;;29.60;53.10;;;;;;4883377;29;20023;-88
2023/06/26 06:28:21;;;;;;;;;;;29.60;53.10;;;;;;4854732;29;19923;-88
2023/06/26 06:30:47;;;;;;;;;;;29.70;53.10;;;;;;4872511;29;20111;-87
2023/06/26 06:33:16;;;;;;;;;;;29.70;53.00;;;;;;4872604;29;19923;-89
2023/06/26 06:35:41;;;;;;;;;;;29.70;53.00;;;;;;4872649;29;20114;-88
2023/06/26 06:38:07;;;;;;;;;;;29.70;53.00;;;;;;4873775;29;19920;-88
2023/06/26 06:40:45;;;;;;;;;;;29.80;52.70;;;;;;4877390;29;20216;-88
2023/06/26 06:43:10;;;;;;;;;;;29.80;52.90;;;;;;4864166;29;20264;-88
2023/06/26 06:45:37;;;;;;;;;;;29.90;52.90;;;;;;4869927;29;19919;-88
2023/06/26 06:48:03;;;;;;;;;;;29.90;52.90;;;;;;4873425;29;19915;-88
2023/06/26 06:50:32;;;;;;;;;;;29.90;52.80;;;;;;4872223;29;19982;-89
2023/06/26 06:53:00;;;;;;;;;;;30.00;52.80;;;;;;4886007;29;19919;-88
2023/06/26 06:55:26;;;;;;;;;;;30.10;52.70;;;;;;4865455;29;19920;-89
2023/06/26 06:57:51;;;;;;;;;;;30.20;52.70;;;;;;4868731;29;19912;-88
2023/06/26 07:00:17;;;;;;;;;;;30.20;53.00;;;;;;4876286;29;19923;-90
2023/06/26 07:02:44;;;;;;;;;;;30.30;52.50;;;;;;4874144;29;20327;-88
2023/06/26 07:05:12;;;;;;;;;;;30.30;52.50;;;;;;4881587;29;19912;-88
2023/06/26 07:07:38;;;;;;;;;;;30.30;52.50;;;;;;4873882;29;19911;-87
2023/06/26 07:10:25;;;;;;;;;;;30.30;52.50;;;;;;4873717;29;19911;-88
2023/06/26 07:12:51;;;;;;;;;;;30.30;52.50;;;;;;4870947;29;20187;-87
2023/06/26 07:15:16;;;;;;;;;;;30.40;52.50;;;;;;4876277;29;19946;-88
2023/06/26 07:17:42;;;;;;;;;;;30.40;52.40;;;;;;4879832;29;19966;-86
2023/06/26 07:20:08;;;;;;;;;;;30.50;52.40;;;;;;4869257;29;19920;-87
2023/06/26 07:22:36;;;;;;;;;;;30.50;52.30;;;;;;4880604;29;19915;-87
2023/06/26 07:25:03;;;;;;;;;;;30.60;52.30;;;;;;4882114;29;20165;-88
2023/06/26 07:27:29;;;;;;;;;;;30.60;52.20;;;;;;4874484;29;19923;-87
2023/06/26 07:29:55;;;;;;;;;;;30.70;52.10;;;;;;4875315;29;19912;-89
2023/06/26 07:32:23;;;;;;;;;;;30.80;52.10;;;;;;4872550;29;20200;-88
2023/06/26 07:34:48;;;;;;;;;;;30.80;52.10;;;;;;4874700;29;19959;-88
2023/06/26 07:37:20;;;;;;;;;;;30.80;52.00;;;;;;4875159;29;19961;-89
2023/06/26 07:39:51;;;;;;;;;;;30.90;52.00;;;;;;4886734;29;19912;-88
2023/06/26 07:42:20;;;;;;;;;;;30.90;51.90;;;;;;4877754;29;19919;-88
2023/06/26 07:44:52;;;;;;;;;;;30.90;52.30;;;;;;4882807;29;20168;-88
2023/06/26 07:47:17;;;;;;;;;;;30.90;52.00;;;;;;4874473;29;20123;-87
2023/06/26 07:49:42;;;;;;;;;;;31.00;51.90;;;;;;4870047;29;19912;-88
2023/06/26 07:52:10;;;;;;;;;;;31.00;51.80;;;;;;4881317;29;20006;-88
2023/06/26 07:54:35;;;;;;;;;;;31.10;51.80;;;;;;4872461;29;19911;-88
2023/06/26 07:57:11;;;;;;;;;;;31.10;51.70;;;;;;4877377;29;20116;-89
2023/06/26 07:59:40;;;;;;;;;;;31.20;51.70;;;;;;4877698;29;19926;-88
2023/06/26 08:02:05;;;;;;;;;;;31.20;51.70;;;;;;4872061;29;19959;-87
2023/06/26 08:04:34;;;;;;;;;;;31.20;51.70;;;;;;4874574;29;20030;-88
2023/06/26 08:07:03;;;;;;;;;;;31.20;51.70;;;;;;4883193;29;19911;-88
2023/06/26 08:09:34;;;;;;;;;;;31.30;51.70;;;;;;4883656;29;19934;-88
2023/06/26 08:12:06;;;;;;;;;;;31.30;51.60;;;;;;4872231;29;20166;-89
2023/06/26 08:14:32;;;;;;;;;;;31.30;51.60;;;;;;4869198;29;20181;-88
2023/06/26 08:16:59;;;;;;;;;;;31.30;51.60;;;;;;4871432;29;20158;-88
2023/06/26 08:19:25;;;;;;;;;;;31.30;51.60;;;;;;4870316;29;19983;-88
2023/06/26 08:21:50;;;;;;;;;;;31.30;51.60;;;;;;4879010;29;20073;-87
2023/06/26 08:24:18;;;;;;;;;;;31.30;51.60;;;;;;4878585;29;20038;-88
2023/06/26 08:26:44;;;;;;;;;;;31.30;52.00;;;;;;4868253;29;20177;-89
2023/06/26 08:29:10;;;;;;;;;;;31.30;51.60;;;;;;4880190;29;20204;-87
2023/06/26 08:31:46;;;;;;;;;;;31.20;51.60;;;;;;4868498;29;19912;-88
2023/06/26 08:34:12;;;;;;;;;;;31.20;51.70;;;;;;4863034;29;20262;-87
2023/06/26 08:36:37;;;;;;;;;;;31.20;52.10;;;;;;4880906;29;19920;-88
2023/06/26 08:39:05;;;;;;;;;;;31.20;51.70;;;;;;4872583;29;20007;-87
2023/06/26 08:41:36;;;;;;;;;;;31.20;51.80;;;;;;4877867;29;19946;-87
2023/06/26 08:44:02;;;;;;;;;;;31.20;52.20;;;;;;4871338;29;19911;-88
2023/06/26 08:46:28;;;;;;;;;;;31.10;51.90;;;;;;4870142;29;19970;-89
2023/06/26 08:49:01;;;;;;;;;;;31.10;51.90;;;;;;4870288;29;20162;-88
2023/06/26 08:51:30;;;;;;;;;;;31.10;51.90;;;;;;4875722;29;20196;-88
2023/06/26 08:53:59;;;;;;;;;;;31.20;51.90;;;;;;4871380;29;20066;-88
2023/06/26 08:56:45;;;;;;;;;;;31.30;51.80;;;;;;4861757;29;19978;-88
2023/06/26 08:59:14;;;;;;;;;;;31.30;51.70;;;;;;4851279;29;20206;-88
2023/06/26 09:01:42;;;;;;;;;;;31.30;51.80;;;;;;4869654;29;19912;-88
2023/06/26 09:04:08;;;;;;;;;;;31.20;51.90;;;;;;4870945;29;19915;-88
2023/06/26 09:06:33;;;;;;;;;;;31.20;51.90;;;;;;4874610;29;19919;-89
2023/06/26 09:08:59;;;;;;;;;;;31.20;51.90;;;;;;4874881;29;20034;-88
2023/06/26 09:11:24;;;;;;;;;;;31.20;51.90;;;;;;4872087;29;20229;-88
2023/06/26 09:13:50;;;;;;;;;;;31.20;51.90;;;;;;4875191;29;19911;-88
2023/06/26 09:16:18;;;;;;;;;;;31.20;52.00;;;;;;4872981;29;20313;-89
2023/06/26 09:19:04;;;;;;;;;;;31.20;52.00;;;;;;4880845;29;19919;-88
2023/06/26 09:21:30;;;;;;;;;;;31.20;52.00;;;;;;4868662;29;19912;-89
2023/06/26 09:23:55;;;;;;;;;;;31.20;52.00;;;;;;4873957;29;19998;-88
2023/06/26 09:26:24;;;;;;;;;;;31.20;52.00;;;;;;4873202;29;19912;-88
2023/06/26 09:29:00;;;;;;;;;;;31.20;51.90;;;;;;4870150;29;20237;-88
2023/06/26 09:31:44;;;;;;;;;;;31.30;51.90;;;;;;4884340;29;19967;-88
2023/06/26 09:34:10;;;;;;;;;;;31.30;51.90;;;;;;4869042;29;19911;-88
2023/06/26 09:36:36;;;;;;;;;;;31.40;51.90;;;;;;4874641;29;19983;-89
2023/06/26 09:39:16;;;;;;;;;;;31.40;51.80;;;;;;4875128;29;20215;-89
2023/06/26 09:41:42;;;;;;;;;;;31.40;51.80;;;;;;4868120;29;19912;-88
2023/06/26 09:44:10;;;;;;;;;;;31.40;51.80;;;;;;4870101;29;19916;-88
2023/06/26 09:46:37;;;;;;;;;;;31.50;51.80;;;;;;4884933;29;20043;-88
2023/06/26 09:49:06;;;;;;;;;;;31.50;51.70;;;;;;4873284;29;20352;-88
2023/06/26 09:51:42;;;;;;;;;;;31.50;51.70;;;;;;4881595;29;20193;-88
2023/06/26 09:54:10;;;;;;;;;;;31.50;51.80;;;;;;4872821;29;19915;-88
2023/06/26 09:56:39;;;;;;;;;;;31.50;51.80;;;;;;4883503;29;19930;-89
2023/06/26 09:59:07;;;;;;;;;;;31.50;51.80;;;;;;4875755;29;20216;-88
2023/06/26 10:01:39;;;;;;;;;;;31.50;52.20;;;;;;4883819;29;19974;-89
2023/06/26 10:04:05;;;;;;;;;;;31.50;51.70;;;;;;4874746;29;20158;-88
2023/06/26 10:06:41;;;;;;;;;;;31.50;51.70;;;;;;4873031;29;19927;-88
2023/06/26 10:09:07;;;;;;;;;;;31.60;51.80;;;;;;4865849;29;20026;-89
2023/06/26 10:11:53;;;;;;;;;;;31.60;51.80;;;;;;4872542;29;20166;-88
2023/06/26 10:14:20;;;;;;;;;;;31.60;51.80;;;;;;4868507;29;19939;-88
2023/06/26 10:16:50;;;;;;;;;;;31.60;51.80;;;;;;4876753;29;19978;-88
2023/06/26 10:19:24;;;;;;;;;;;31.70;51.80;;;;;;4878028;29;20018;-88
2023/06/26 10:21:52;;;;;;;;;;;31.70;51.80;;;;;;4885668;29;20181;-89
2023/06/26 10:24:18;;;;;;;;;;;31.70;51.80;;;;;;4873121;29;19918;-88
2023/06/26 10:26:47;;;;;;;;;;;31.70;51.90;;;;;;4887162;29;19925;-88
2023/06/26 10:29:15;;;;;;;;;;;31.70;51.90;;;;;;4869558;29;20230;-88
2023/06/26 10:31:52;;;;;;;;;;;31.70;51.80;;;;;;4872467;29;19979;-88
2023/06/26 10:34:18;;;;;;;;;;;31.70;51.80;;;;;;4874595;29;20476;-88
2023/06/26 10:36:43;;;;;;;;;;;31.70;51.80;;;;;;4873399;29;19930;-87
2023/06/26 10:39:09;;;;;;;;;;;31.70;51.80;;;;;;4870694;29;20145;-88
2023/06/26 10:41:58;;;;;;;;;;;31.70;51.80;;;;;;4871321;29;20438;-87
2023/06/26 10:44:26;;;;;;;;;;;31.70;52.20;;;;;;4821605;29;19924;-88
2023/06/26 10:46:55;;;;;;;;;;;31.70;51.80;;;;;;4864732;29;19912;-87
2023/06/26 10:49:39;;;;;;;;;;;31.80;51.80;;;;;;4871514;29;20014;-90
2023/06/26 10:52:08;;;;;;;;;;;31.80;51.80;;;;;;4875667;29;19927;-92
2023/06/26 10:54:37;;;;;;;;;;;31.80;51.90;;;;;;4872498;29;20192;-89
2023/06/26 10:57:07;;;;;;;;;;;31.80;51.90;;;;;;4870630;29;19915;-88
2023/06/26 10:59:33;;;;;;;;;;;31.80;51.90;;;;;;4872384;29;19911;-87
2023/06/26 11:02:04;;;;;;;;;;;31.80;51.90;;;;;;4871402;29;19919;-88
2023/06/26 11:04:48;;;;;;;;;;;31.80;51.90;;;;;;4873152;29;19991;-88
2023/06/26 11:07:34;;;;;;;;;;;31.80;51.90;;;;;;4881174;29;19912;-88
2023/06/26 11:10:00;;;;;;;;;;;31.80;51.90;;;;;;4870174;29;19915;-88
2023/06/26 11:12:37;;;;;;;;;;;31.80;51.90;;;;;;4880903;29;19911;-88
2023/06/26 11:15:16;;;;;;;;;;;31.80;52.00;;;;;;4866678;29;19955;-88
2023/06/26 11:17:42;;;;;;;;;;;31.80;51.90;;;;;;4885372;29;19983;-89
2023/06/26 11:20:11;;;;;;;;;;;31.80;51.90;;;;;;4879400;29;19928;-87
2023/06/26 11:22:44;;;;;;;;;;;31.80;51.90;;;;;;4869110;29;19922;-88
2023/06/26 11:25:10;;;;;;;;;;;31.80;51.90;;;;;;4884915;29;19915;-88
2023/06/26 11:27:39;;;;;;;;;;;31.90;51.90;;;;;;4884159;29;20069;-89
2023/06/26 11:30:15;;;;;;;;;;;31.90;51.90;;;;;;4868922;29;19927;-87
2023/06/26 11:32:41;;;;;;;;;;;31.90;51.90;;;;;;4865976;29;19950;-88
2023/06/26 11:35:07;;;;;;;;;;;31.90;51.90;;;;;;4869253;29;20460;-88
2023/06/26 11:37:36;;;;;;;;;;;31.90;51.90;;;;;;4870921;29;20208;-88
2023/06/26 11:40:21;;;;;;;;;;;31.90;51.90;;;;;;4863359;29;19915;-87
2023/06/26 11:43:03;;;;;;;;;;;31.90;51.90;;;;;;4864076;29;20107;-88
2023/06/26 11:45:30;;;;;;;;;;;31.80;51.90;;;;;;4864512;29;20162;-88
2023/06/26 11:47:56;;;;;;;;;;;31.80;51.90;;;;;;4868037;29;20122;-88
2023/06/26 11:50:22;;;;;;;;;;;31.80;52.00;;;;;;4872797;29;19916;-88
2023/06/26 11:52:55;;;;;;;;;;;31.80;52.00;;;;;;4864788;29;19999;-87
2023/06/26 11:55:21;;;;;;;;;;;31.80;52.00;;;;;;4880395;29;19931;-88
2023/06/26 11:57:50;;;;;;;;;;;31.80;52.00;;;;;;4868688;29;19927;-88
2023/06/26 12:00:19;;;;;;;;;;;31.80;52.00;;;;;;4881387;29;20055;-88
2023/06/26 12:02:45;;;;;;;;;;;31.80;52.00;;;;;;4870736;29;19919;-88
2023/06/26 12:05:25;;;;;;;;;;;31.90;52.00;;;;;;4882300;29;20006;-90
2023/06/26 12:07:51;;;;;;;;;;;31.90;52.00;;;;;;4877356;29;19920;-88
2023/06/26 12:10:22;;;;;;;;;;;31.90;52.00;;;;;;4866065;29;19939;-88
2023/06/26 12:12:51;;;;;;;;;;;31.90;52.40;;;;;;4872738;29;19949;-88
2023/06/26 12:15:20;;;;;;;;;;;31.90;52.00;;;;;;4868433;29;19915;-88
2023/06/26 12:17:45;;;;;;;;;;;31.90;52.00;;;;;;4883765;29;19924;-88
2023/06/26 12:20:18;;;;;;;;;;;31.80;52.00;;;;;;4877370;29;19918;-88
2023/06/26 12:22:48;;;;;;;;;;;31.80;52.00;;;;;;4875861;29;20375;-91
2023/06/26 12:25:14;;;;;;;;;;;31.80;52.10;;;;;;4870208;29;19912;-89
2023/06/26 12:27:39;;;;;;;;;;;31.80;52.10;;;;;;4868750;29;19918;-88
2023/06/26 12:30:14;;;;;;;;;;;31.80;52.10;;;;;;4866733;29;19975;-89
2023/06/26 12:32:43;;;;;;;;;;;31.80;52.10;;;;;;4857712;29;19982;-89
2023/06/26 12:35:15;;;;;;;;;;;31.80;52.20;;;;;;4875791;29;20063;-89
2023/06/26 12:37:42;;;;;;;;;;;31.80;52.10;;;;;;4868958;29;19912;-89
2023/06/26 12:40:24;;;;;;;;;;;31.80;52.10;;;;;;4867751;29;20019;-90
2023/06/26 12:42:56;;;;;;;;;;;31.80;52.20;;;;;;4862232;29;19999;-89
2023/06/26 12:45:21;;;;;;;;;;;31.80;52.10;;;;;;4863711;29;19981;-89
2023/06/26 12:47:48;;;;;;;;;;;31.80;52.10;;;;;;4868535;29;20304;-90
2023/06/26 12:50:13;;;;;;;;;;;31.80;52.10;;;;;;4869594;29;20265;-90
2023/06/26 12:52:39;;;;;;;;;;;31.80;52.10;;;;;;4877638;29;19979;-86
2023/06/26 12:55:07;;;;;;;;;;;31.80;52.10;;;;;;4872722;29;20018;-88
2023/06/26 12:57:33;;;;;;;;;;;31.80;52.00;;;;;;4869698;29;19930;-89
2023/06/26 13:00:00;;;;;;;;;;;31.80;52.00;;;;;;4883909;29;19923;-88
2023/06/26 13:02:25;;;;;;;;;;;31.80;52.00;;;;;;4874199;29;19979;-89
2023/06/26 13:05:06;;;;;;;;;;;31.80;52.00;;;;;;4874052;29;19919;-90
2023/06/26 13:07:32;;;;;;;;;;;31.80;52.00;;;;;;4863650;29;19912;-89
2023/06/26 13:09:57;;;;;;;;;;;31.70;52.00;;;;;;4861480;29;19985;-89
2023/06/26 13:12:29;;;;;;;;;;;31.70;52.10;;;;;;4877232;29;19912;-88
2023/06/26 13:14:55;;;;;;;;;;;31.70;52.10;;;;;;4871537;29;20045;-89
2023/06/26 13:17:23;;;;;;;;;;;31.70;52.10;;;;;;4863554;29;20052;-88
2023/06/26 13:19:52;;;;;;;;;;;31.70;52.10;;;;;;4871660;29;20380;-88
2023/06/26 13:22:17;;;;;;;;;;;31.60;52.10;;;;;;4867718;29;20139;-89
2023/06/26 13:24:43;;;;;;;;;;;31.60;52.10;;;;;;4869428;29;19922;-88
2023/06/26 13:27:08;;;;;;;;;;;31.60;52.20;;;;;;4872134;29;20120;-88
2023/06/26 13:29:34;;;;;;;;;;;31.60;52.10;;;;;;4869891;29;19912;-89
2023/06/26 13:31:59;;;;;;;;;;;31.60;52.20;;;;;;4873551;29;19926;-89
2023/06/26 13:34:34;;;;;;;;;;;31.60;52.20;;;;;;4879886;29;19915;-90
2023/06/26 13:37:00;;;;;;;;;;;31.60;52.20;;;;;;4878389;29;20300;-89
2023/06/26 13:39:25;;;;;;;;;;;31.60;52.10;;;;;;4891911;29;19917;-89
2023/06/26 13:41:54;;;;;;;;;;;31.60;52.20;;;;;;4872812;29;19919;-89
2023/06/26 13:44:28;;;;;;;;;;;31.50;52.10;;;;;;4867507;29;20071;-89
2023/06/26 13:46:54;;;;;;;;;;;31.50;52.10;;;;;;4868513;29;20398;-90
2023/06/26 13:49:19;;;;;;;;;;;31.50;52.10;;;;;;4866595;29;19927;-89
2023/06/26 13:51:49;;;;;;;;;;;31.50;52.20;;;;;;4872433;29;20233;-89
2023/06/26 13:54:14;;;;;;;;;;;31.50;52.20;;;;;;4882815;29;19916;-89
2023/06/26 13:56:40;;;;;;;;;;;31.50;52.10;;;;;;4873694;29;19931;-89
2023/06/26 13:59:05;;;;;;;;;;;31.50;52.10;;;;;;4871157;29;19947;-90
2023/06/26 14:01:34;;;;;;;;;;;31.50;52.20;;;;;;4867827;29;19979;-89
2023/06/26 14:04:03;;;;;;;;;;;31.50;52.10;;;;;;4869343;29;20273;-89
2023/06/26 14:06:30;;;;;;;;;;;31.50;52.20;;;;;;4863220;29;19996;-90
2023/06/26 14:08:55;;;;;;;;;;;31.50;52.20;;;;;;4868362;29;20154;-90
2023/06/26 14:11:22;;;;;;;;;;;31.50;52.20;;;;;;4873062;29;19916;-90
2023/06/26 14:13:57;;;;;;;;;;;31.50;52.20;;;;;;4869036;29;19930;-90
2023/06/26 14:16:24;;;;;;;;;;;31.40;52.10;;;;;;4871671;29;19930;-89
2023/06/26 14:18:49;;;;;;;;;;;31.40;52.20;;;;;;4870938;29;19911;-90
2023/06/26 14:21:15;;;;;;;;;;;31.40;52.20;;;;;;4874753;29;20315;-89
2023/06/26 14:23:40;;;;;;;;;;;31.40;52.20;;;;;;4873849;29;19926;-89
2023/06/26 14:26:10;;;;;;;;;;;31.40;52.10;;;;;;4874382;29;19983;-89
2023/06/26 14:28:35;;;;;;;;;;;31.40;52.20;;;;;;4874696;29;19928;-90